sensor_id;sensor_type;location;lat;lon;timestamp;P1;durP1;ratioP1;P2;durP2;ratioP2
63201;SDS011;49296;48.188;11.566;2024-03-23T00:52:59;6.07;;;3.28;;
63201;SDS011;49296;48.188;11.566;2024-03-23T00:55:26;6.05;;;3.53;;
63201;SDS011;49296;48.188;11.566;2024-03-23T00:57:53;6.45;;;3.05;;
63201;SDS011;49296;48.188;11.566;2024-03-23T01:00:19;5.10;;;3.33;;
63201;SDS011;49296;48.188;11.566;2024-03-23T01:02:46;5.82;;;3.03;;
63201;SDS011;49296;48.188;11.566;2024-03-23T01:05:12;4.43;;;3.00;;
63201;SDS011;49296;48.188;11.566;2024-03-23T01:07:39;6.63;;;3.28;;
63201;SDS011;49296;48.188;11.566;2024-03-23T01:10:06;5.68;;;2.80;;
63201;SDS011;49296;48.188;11.566;2024-03-23T01:12:33;7.10;;;3.17;;
63201;SDS011;49296;48.188;11.566;2024-03-23T01:14:59;5.10;;;2.72;;
63201;SDS011;49296;48.188;11.566;2024-03-23T01:17:26;7.00;;;3.08;;
63201;SDS011;49296;48.188;11.566;2024-03-23T01:19:52;4.25;;;2.70;;
63201;SDS011;49296;48.188;11.566;2024-03-23T01:22:19;5.22;;;3.28;;
63201;SDS011;49296;48.188;11.566;2024-03-23T01:24:45;4.25;;;2.65;;
63201;SDS011;49296;48.188;11.566;2024-03-23T01:27:13;5.90;;;2.97;;
63201;SDS011;49296;48.188;11.566;2024-03-23T01:29:39;3.88;;;2.55;;
63201;SDS011;49296;48.188;11.566;2024-03-23T01:32:06;4.97;;;2.60;;
63201;SDS011;49296;48.188;11.566;2024-03-23T01:34:32;5.43;;;2.83;;
63201;SDS011;49296;48.188;11.566;2024-03-23T01:36:59;4.25;;;2.42;;
63201;SDS011;49296;48.188;11.566;2024-03-23T01:39:26;5.88;;;2.70;;
63201;SDS011;49296;48.188;11.566;2024-03-23T01:41:53;5.90;;;2.60;;
63201;SDS011;49296;48.188;11.566;2024-03-23T01:44:20;5.72;;;3.17;;
63201;SDS011;49296;48.188;11.566;2024-03-23T01:46:47;5.82;;;2.90;;
63201;SDS011;49296;48.188;11.566;2024-03-23T01:49:13;5.32;;;2.80;;
63201;SDS011;49296;48.188;11.566;2024-03-23T01:51:40;4.00;;;2.67;;
63201;SDS011;49296;48.188;11.566;2024-03-23T01:54:07;4.95;;;3.03;;
63201;SDS011;49296;48.188;11.566;2024-03-23T01:56:34;4.03;;;2.55;;
63201;SDS011;49296;48.188;11.566;2024-03-23T01:59:00;5.93;;;3.10;;
63201;SDS011;49296;48.188;11.566;2024-03-23T02:01:29;6.45;;;3.20;;
63201;SDS011;49296;48.188;11.566;2024-03-23T02:03:55;6.35;;;3.60;;
63201;SDS011;49296;48.188;11.566;2024-03-23T02:06:22;5.65;;;3.35;;
63201;SDS011;49296;48.188;11.566;2024-03-23T02:08:49;5.30;;;3.03;;
63201;SDS011;49296;48.188;11.566;2024-03-23T02:11:16;4.47;;;3.65;;
63201;SDS011;49296;48.188;11.566;2024-03-23T02:13:42;5.07;;;2.95;;
63201;SDS011;49296;48.188;11.566;2024-03-23T02:16:09;7.53;;;3.25;;
63201;SDS011;49296;48.188;11.566;2024-03-23T02:18:36;4.90;;;2.95;;
63201;SDS011;49296;48.188;11.566;2024-03-23T02:21:03;6.55;;;3.10;;
63201;SDS011;49296;48.188;11.566;2024-03-23T02:23:31;4.40;;;2.75;;
63201;SDS011;49296;48.188;11.566;2024-03-23T02:25:58;6.13;;;3.58;;
63201;SDS011;49296;48.188;11.566;2024-03-23T02:28:24;7.13;;;3.70;;
63201;SDS011;49296;48.188;11.566;2024-03-23T02:30:51;6.57;;;3.67;;
63201;SDS011;49296;48.188;11.566;2024-03-23T02:33:17;7.90;;;3.50;;
63201;SDS011;49296;48.188;11.566;2024-03-23T02:35:45;6.85;;;4.10;;
63201;SDS011;49296;48.188;11.566;2024-03-23T02:38:11;5.70;;;3.75;;
63201;SDS011;49296;48.188;11.566;2024-03-23T02:40:40;5.68;;;3.53;;
63201;SDS011;49296;48.188;11.566;2024-03-23T02:43:06;7.18;;;3.67;;
63201;SDS011;49296;48.188;11.566;2024-03-23T02:45:32;6.30;;;3.42;;
63201;SDS011;49296;48.188;11.566;2024-03-23T02:47:58;8.20;;;4.78;;
63201;SDS011;49296;48.188;11.566;2024-03-23T02:50:25;6.55;;;4.00;;
63201;SDS011;49296;48.188;11.566;2024-03-23T02:52:51;7.07;;;3.80;;
63201;SDS011;49296;48.188;11.566;2024-03-23T02:55:18;7.57;;;4.47;;
63201;SDS011;49296;48.188;11.566;2024-03-23T02:57:46;5.75;;;3.20;;
63201;SDS011;49296;48.188;11.566;2024-03-23T03:00:13;6.70;;;3.58;;
63201;SDS011;49296;48.188;11.566;2024-03-23T03:02:39;5.88;;;3.75;;
63201;SDS011;49296;48.188;11.566;2024-03-23T03:05:06;5.72;;;3.65;;
63201;SDS011;49296;48.188;11.566;2024-03-23T03:07:34;6.82;;;3.63;;
63201;SDS011;49296;48.188;11.566;2024-03-23T03:10:03;7.03;;;3.78;;
63201;SDS011;49296;48.188;11.566;2024-03-23T03:12:31;5.68;;;3.50;;
63201;SDS011;49296;48.188;11.566;2024-03-23T03:15:00;7.30;;;4.20;;
63201;SDS011;49296;48.188;11.566;2024-03-23T03:17:26;5.78;;;4.32;;
63201;SDS011;49296;48.188;11.566;2024-03-23T03:19:53;6.82;;;4.28;;
63201;SDS011;49296;48.188;11.566;2024-03-23T03:22:21;8.00;;;3.97;;
63201;SDS011;49296;48.188;11.566;2024-03-23T03:24:48;6.68;;;4.65;;
63201;SDS011;49296;48.188;11.566;2024-03-23T03:27:13;8.13;;;4.88;;
63201;SDS011;49296;48.188;11.566;2024-03-23T03:29:42;6.57;;;4.82;;
63201;SDS011;49296;48.188;11.566;2024-03-23T03:32:09;7.05;;;4.10;;
63201;SDS011;49296;48.188;11.566;2024-03-23T03:34:37;8.93;;;4.40;;
63201;SDS011;49296;48.188;11.566;2024-03-23T03:37:03;7.90;;;5.18;;
63201;SDS011;49296;48.188;11.566;2024-03-23T03:39:30;8.60;;;4.38;;
63201;SDS011;49296;48.188;11.566;2024-03-23T03:41:57;8.38;;;5.25;;
63201;SDS011;49296;48.188;11.566;2024-03-23T03:44:25;6.53;;;4.00;;
63201;SDS011;49296;48.188;11.566;2024-03-23T03:46:51;5.82;;;3.78;;
63201;SDS011;49296;48.188;11.566;2024-03-23T03:49:20;7.15;;;4.30;;
63201;SDS011;49296;48.188;11.566;2024-03-23T03:51:45;7.20;;;3.90;;
63201;SDS011;49296;48.188;11.566;2024-03-23T03:54:12;6.93;;;4.18;;
63201;SDS011;49296;48.188;11.566;2024-03-23T03:56:38;7.53;;;4.15;;
63201;SDS011;49296;48.188;11.566;2024-03-23T03:59:06;6.78;;;4.00;;
63201;SDS011;49296;48.188;11.566;2024-03-23T04:01:32;7.22;;;4.00;;
63201;SDS011;49296;48.188;11.566;2024-03-23T04:03:59;6.65;;;4.90;;
63201;SDS011;49296;48.188;11.566;2024-03-23T04:06:26;6.60;;;4.15;;
63201;SDS011;49296;48.188;11.566;2024-03-23T04:08:53;6.53;;;4.35;;
63201;SDS011;49296;48.188;11.566;2024-03-23T04:11:19;7.53;;;4.72;;
63201;SDS011;49296;48.188;11.566;2024-03-23T04:13:46;6.18;;;3.88;;
63201;SDS011;49296;48.188;11.566;2024-03-23T04:16:13;7.00;;;4.38;;
63201;SDS011;49296;48.188;11.566;2024-03-23T04:18:50;6.28;;;3.55;;
63201;SDS011;49296;48.188;11.566;2024-03-23T04:21:16;5.13;;;3.30;;
63201;SDS011;49296;48.188;11.566;2024-03-23T04:23:44;6.60;;;3.92;;
63201;SDS011;49296;48.188;11.566;2024-03-23T04:26:10;6.63;;;3.95;;
63201;SDS011;49296;48.188;11.566;2024-03-23T04:28:37;4.72;;;3.42;;
63201;SDS011;49296;48.188;11.566;2024-03-23T04:31:03;9.02;;;4.30;;
63201;SDS011;49296;48.188;11.566;2024-03-23T04:33:30;7.60;;;4.00;;
63201;SDS011;49296;48.188;11.566;2024-03-23T04:35:56;7.57;;;3.92;;
63201;SDS011;49296;48.188;11.566;2024-03-23T04:38:23;7.18;;;4.25;;
63201;SDS011;49296;48.188;11.566;2024-03-23T04:40:55;6.45;;;3.95;;
63201;SDS011;49296;48.188;11.566;2024-03-23T04:43:22;6.22;;;4.00;;
63201;SDS011;49296;48.188;11.566;2024-03-23T04:45:49;6.05;;;4.10;;
63201;SDS011;49296;48.188;11.566;2024-03-23T04:48:16;6.90;;;3.97;;
63201;SDS011;49296;48.188;11.566;2024-03-23T04:50:45;6.47;;;4.00;;
63201;SDS011;49296;48.188;11.566;2024-03-23T04:53:12;6.55;;;3.85;;
63201;SDS011;49296;48.188;11.566;2024-03-23T04:55:39;6.00;;;3.80;;
63201;SDS011;49296;48.188;11.566;2024-03-23T04:58:08;6.18;;;3.60;;
63201;SDS011;49296;48.188;11.566;2024-03-23T05:00:34;6.13;;;4.15;;
63201;SDS011;49296;48.188;11.566;2024-03-23T05:03:01;5.43;;;3.67;;
63201;SDS011;49296;48.188;11.566;2024-03-23T05:05:27;6.65;;;3.95;;
63201;SDS011;49296;48.188;11.566;2024-03-23T05:07:54;5.40;;;3.00;;
63201;SDS011;49296;48.188;11.566;2024-03-23T05:10:21;4.40;;;2.85;;
63201;SDS011;49296;48.188;11.566;2024-03-23T05:12:47;6.47;;;3.20;;
63201;SDS011;49296;48.188;11.566;2024-03-23T05:15:15;5.22;;;3.30;;
63201;SDS011;49296;48.188;11.566;2024-03-23T05:17:41;6.07;;;3.45;;
63201;SDS011;49296;48.188;11.566;2024-03-23T05:20:08;5.75;;;3.67;;
63201;SDS011;49296;48.188;11.566;2024-03-23T05:22:35;6.13;;;3.45;;
63201;SDS011;49296;48.188;11.566;2024-03-23T05:25:02;5.07;;;3.45;;
63201;SDS011;49296;48.188;11.566;2024-03-23T05:27:30;7.55;;;3.70;;
63201;SDS011;49296;48.188;11.566;2024-03-23T05:29:57;5.90;;;3.78;;
63201;SDS011;49296;48.188;11.566;2024-03-23T05:32:25;6.82;;;3.70;;
63201;SDS011;49296;48.188;11.566;2024-03-23T05:34:52;7.15;;;3.95;;
63201;SDS011;49296;48.188;11.566;2024-03-23T05:37:21;6.43;;;3.60;;
63201;SDS011;49296;48.188;11.566;2024-03-23T05:39:48;7.78;;;4.03;;
63201;SDS011;49296;48.188;11.566;2024-03-23T05:42:15;6.80;;;3.88;;
63201;SDS011;49296;48.188;11.566;2024-03-23T05:44:43;7.72;;;3.65;;
63201;SDS011;49296;48.188;11.566;2024-03-23T05:47:09;5.22;;;3.50;;
63201;SDS011;49296;48.188;11.566;2024-03-23T05:49:39;5.43;;;3.70;;
63201;SDS011;49296;48.188;11.566;2024-03-23T05:52:06;8.55;;;4.53;;
63201;SDS011;49296;48.188;11.566;2024-03-23T05:54:33;9.85;;;3.70;;
63201;SDS011;49296;48.188;11.566;2024-03-23T05:56:59;4.88;;;3.33;;
63201;SDS011;49296;48.188;11.566;2024-03-23T05:59:26;5.65;;;3.40;;
63201;SDS011;49296;48.188;11.566;2024-03-23T06:01:52;4.63;;;2.80;;
63201;SDS011;49296;48.188;11.566;2024-03-23T06:04:19;5.07;;;2.80;;
63201;SDS011;49296;48.188;11.566;2024-03-23T06:06:47;5.38;;;3.13;;
63201;SDS011;49296;48.188;11.566;2024-03-23T06:09:14;5.13;;;2.38;;
63201;SDS011;49296;48.188;11.566;2024-03-23T06:11:40;7.25;;;2.58;;
63201;SDS011;49296;48.188;11.566;2024-03-23T06:14:07;5.53;;;3.28;;
63201;SDS011;49296;48.188;11.566;2024-03-23T06:16:33;4.70;;;2.58;;
63201;SDS011;49296;48.188;11.566;2024-03-23T06:19:00;4.97;;;2.40;;
63201;SDS011;49296;48.188;11.566;2024-03-23T06:21:29;4.90;;;2.83;;
63201;SDS011;49296;48.188;11.566;2024-03-23T06:23:57;3.88;;;2.28;;
63201;SDS011;49296;48.188;11.566;2024-03-23T06:26:23;3.92;;;2.22;;
63201;SDS011;49296;48.188;11.566;2024-03-23T06:28:50;6.15;;;2.45;;
63201;SDS011;49296;48.188;11.566;2024-03-23T06:31:16;5.85;;;3.05;;
63201;SDS011;49296;48.188;11.566;2024-03-23T06:33:43;6.32;;;3.05;;
63201;SDS011;49296;48.188;11.566;2024-03-23T06:36:09;6.45;;;3.08;;
63201;SDS011;49296;48.188;11.566;2024-03-23T06:38:36;6.60;;;2.83;;
63201;SDS011;49296;48.188;11.566;2024-03-23T06:41:04;4.70;;;2.75;;
63201;SDS011;49296;48.188;11.566;2024-03-23T06:43:31;6.13;;;3.08;;
63201;SDS011;49296;48.188;11.566;2024-03-23T06:45:57;5.88;;;2.97;;
63201;SDS011;49296;48.188;11.566;2024-03-23T06:48:24;5.13;;;2.53;;
63201;SDS011;49296;48.188;11.566;2024-03-23T06:50:54;5.13;;;2.70;;
63201;SDS011;49296;48.188;11.566;2024-03-23T06:53:22;6.60;;;2.83;;
63201;SDS011;49296;48.188;11.566;2024-03-23T06:55:49;4.47;;;2.30;;
63201;SDS011;49296;48.188;11.566;2024-03-23T06:58:20;4.47;;;2.60;;
63201;SDS011;49296;48.188;11.566;2024-03-23T07:00:46;8.13;;;2.40;;
63201;SDS011;49296;48.188;11.566;2024-03-23T07:03:13;4.15;;;2.00;;
63201;SDS011;49296;48.188;11.566;2024-03-23T07:05:39;4.82;;;2.28;;
63201;SDS011;49296;48.188;11.566;2024-03-23T07:08:06;4.20;;;2.30;;
63201;SDS011;49296;48.188;11.566;2024-03-23T07:10:33;4.80;;;2.15;;
63201;SDS011;49296;48.188;11.566;2024-03-23T07:13:00;4.38;;;2.50;;
63201;SDS011;49296;48.188;11.566;2024-03-23T07:15:28;4.15;;;2.17;;
63201;SDS011;49296;48.188;11.566;2024-03-23T07:17:54;3.85;;;2.13;;
63201;SDS011;49296;48.188;11.566;2024-03-23T07:20:20;4.35;;;2.10;;
63201;SDS011;49296;48.188;11.566;2024-03-23T07:22:47;3.83;;;1.92;;
63201;SDS011;49296;48.188;11.566;2024-03-23T07:25:13;3.75;;;2.10;;
63201;SDS011;49296;48.188;11.566;2024-03-23T07:27:40;4.93;;;2.30;;
63201;SDS011;49296;48.188;11.566;2024-03-23T07:30:06;3.83;;;2.00;;
63201;SDS011;49296;48.188;11.566;2024-03-23T07:32:36;4.30;;;2.08;;
63201;SDS011;49296;48.188;11.566;2024-03-23T07:35:02;4.80;;;2.50;;
63201;SDS011;49296;48.188;11.566;2024-03-23T07:37:29;4.45;;;2.40;;
63201;SDS011;49296;48.188;11.566;2024-03-23T07:39:56;11.63;;;2.85;;
63201;SDS011;49296;48.188;11.566;2024-03-23T07:42:24;8.02;;;2.72;;
63201;SDS011;49296;48.188;11.566;2024-03-23T07:44:51;5.15;;;2.80;;
63201;SDS011;49296;48.188;11.566;2024-03-23T07:47:19;6.10;;;2.67;;
63201;SDS011;49296;48.188;11.566;2024-03-23T07:49:47;6.70;;;2.28;;
63201;SDS011;49296;48.188;11.566;2024-03-23T07:52:14;4.32;;;2.05;;
63201;SDS011;49296;48.188;11.566;2024-03-23T07:54:40;5.72;;;2.33;;
63201;SDS011;49296;48.188;11.566;2024-03-23T07:57:07;5.35;;;2.47;;
63201;SDS011;49296;48.188;11.566;2024-03-23T07:59:33;5.50;;;2.30;;
63201;SDS011;49296;48.188;11.566;2024-03-23T08:01:59;5.15;;;3.00;;
63201;SDS011;49296;48.188;11.566;2024-03-23T08:04:26;4.82;;;2.58;;
63201;SDS011;49296;48.188;11.566;2024-03-23T08:06:55;6.85;;;2.55;;
63201;SDS011;49296;48.188;11.566;2024-03-23T08:09:21;5.72;;;2.75;;
63201;SDS011;49296;48.188;11.566;2024-03-23T08:11:48;7.13;;;2.58;;
63201;SDS011;49296;48.188;11.566;2024-03-23T08:14:13;6.40;;;3.85;;
63201;SDS011;49296;48.188;11.566;2024-03-23T08:16:40;5.13;;;2.70;;
63201;SDS011;49296;48.188;11.566;2024-03-23T08:19:06;6.72;;;3.45;;
63201;SDS011;49296;48.188;11.566;2024-03-23T08:21:33;7.03;;;2.97;;
63201;SDS011;49296;48.188;11.566;2024-03-23T08:24:01;7.88;;;4.13;;
63201;SDS011;49296;48.188;11.566;2024-03-23T08:26:29;6.15;;;2.75;;
63201;SDS011;49296;48.188;11.566;2024-03-23T08:28:55;5.70;;;2.63;;
63201;SDS011;49296;48.188;11.566;2024-03-23T08:31:22;4.25;;;2.45;;
63201;SDS011;49296;48.188;11.566;2024-03-23T08:33:48;5.07;;;2.33;;
63201;SDS011;49296;48.188;11.566;2024-03-23T08:36:15;5.75;;;2.88;;
63201;SDS011;49296;48.188;11.566;2024-03-23T08:38:41;5.97;;;2.42;;
63201;SDS011;49296;48.188;11.566;2024-03-23T08:41:10;4.50;;;2.28;;
63201;SDS011;49296;48.188;11.566;2024-03-23T08:43:36;4.85;;;2.38;;
63201;SDS011;49296;48.188;11.566;2024-03-23T08:46:04;4.35;;;2.22;;
63201;SDS011;49296;48.188;11.566;2024-03-23T08:48:30;5.53;;;2.25;;
63201;SDS011;49296;48.188;11.566;2024-03-23T08:50:59;4.82;;;2.05;;
63201;SDS011;49296;48.188;11.566;2024-03-23T08:53:27;4.50;;;2.10;;
63201;SDS011;49296;48.188;11.566;2024-03-23T08:55:54;5.32;;;2.55;;
63201;SDS011;49296;48.188;11.566;2024-03-23T08:58:22;9.10;;;3.40;;
63201;SDS011;49296;48.188;11.566;2024-03-23T09:00:50;5.15;;;2.60;;
63201;SDS011;49296;48.188;11.566;2024-03-23T09:03:16;4.18;;;1.95;;
63201;SDS011;49296;48.188;11.566;2024-03-23T09:05:43;4.15;;;2.05;;
63201;SDS011;49296;48.188;11.566;2024-03-23T09:08:09;3.90;;;2.05;;
63201;SDS011;49296;48.188;11.566;2024-03-23T09:10:38;3.30;;;2.00;;
63201;SDS011;49296;48.188;11.566;2024-03-23T09:13:04;6.00;;;2.70;;
63201;SDS011;49296;48.188;11.566;2024-03-23T09:15:33;5.70;;;2.53;;
63201;SDS011;49296;48.188;11.566;2024-03-23T09:18:00;5.22;;;2.58;;
63201;SDS011;49296;48.188;11.566;2024-03-23T09:20:27;6.18;;;3.00;;
63201;SDS011;49296;48.188;11.566;2024-03-23T09:22:53;5.25;;;2.33;;
63201;SDS011;49296;48.188;11.566;2024-03-23T09:25:19;5.03;;;2.70;;
63201;SDS011;49296;48.188;11.566;2024-03-23T09:27:46;5.68;;;2.60;;
63201;SDS011;49296;48.188;11.566;2024-03-23T09:30:13;6.25;;;3.33;;
63201;SDS011;49296;48.188;11.566;2024-03-23T09:32:41;6.45;;;2.67;;
63201;SDS011;49296;48.188;11.566;2024-03-23T09:35:10;3.90;;;2.03;;
63201;SDS011;49296;48.188;11.566;2024-03-23T09:37:35;3.03;;;1.60;;
63201;SDS011;49296;48.188;11.566;2024-03-23T09:40:04;3.88;;;1.80;;
63201;SDS011;49296;48.188;11.566;2024-03-23T09:42:32;4.78;;;2.00;;
63201;SDS011;49296;48.188;11.566;2024-03-23T09:45:00;4.20;;;1.55;;
63201;SDS011;49296;48.188;11.566;2024-03-23T09:47:26;3.42;;;1.70;;
63201;SDS011;49296;48.188;11.566;2024-03-23T09:49:55;3.65;;;1.60;;
63201;SDS011;49296;48.188;11.566;2024-03-23T09:52:21;2.38;;;1.20;;
63201;SDS011;49296;48.188;11.566;2024-03-23T09:54:48;2.88;;;1.35;;
63201;SDS011;49296;48.188;11.566;2024-03-23T09:57:14;3.10;;;1.42;;
63201;SDS011;49296;48.188;11.566;2024-03-23T09:59:41;3.25;;;1.52;;
63201;SDS011;49296;48.188;11.566;2024-03-23T10:02:07;4.18;;;1.55;;
63201;SDS011;49296;48.188;11.566;2024-03-23T10:04:35;2.83;;;1.10;;
63201;SDS011;49296;48.188;11.566;2024-03-23T10:07:10;3.25;;;1.10;;
63201;SDS011;49296;48.188;11.566;2024-03-23T10:09:38;2.72;;;1.00;;
63201;SDS011;49296;48.188;11.566;2024-03-23T10:12:08;2.67;;;0.85;;
63201;SDS011;49296;48.188;11.566;2024-03-23T10:14:36;3.03;;;1.25;;
63201;SDS011;49296;48.188;11.566;2024-03-23T10:17:12;1.27;;;0.65;;
63201;SDS011;49296;48.188;11.566;2024-03-23T10:19:40;2.35;;;1.00;;
63201;SDS011;49296;48.188;11.566;2024-03-23T10:22:08;2.35;;;1.08;;
63201;SDS011;49296;48.188;11.566;2024-03-23T10:24:37;1.73;;;1.00;;
63201;SDS011;49296;48.188;11.566;2024-03-23T10:27:03;2.22;;;1.10;;
63201;SDS011;49296;48.188;11.566;2024-03-23T10:29:30;2.47;;;1.10;;
63201;SDS011;49296;48.188;11.566;2024-03-23T10:32:07;1.98;;;0.85;;
63201;SDS011;49296;48.188;11.566;2024-03-23T10:34:35;2.05;;;0.90;;
63201;SDS011;49296;48.188;11.566;2024-03-23T10:37:01;2.50;;;1.17;;
63201;SDS011;49296;48.188;11.566;2024-03-23T10:39:30;2.17;;;1.23;;
63201;SDS011;49296;48.188;11.566;2024-03-23T10:42:00;4.22;;;1.65;;
63201;SDS011;49296;48.188;11.566;2024-03-23T10:44:29;3.90;;;1.48;;
63201;SDS011;49296;48.188;11.566;2024-03-23T10:46:56;3.30;;;1.58;;
63201;SDS011;49296;48.188;11.566;2024-03-23T10:49:26;2.95;;;1.40;;
63201;SDS011;49296;48.188;11.566;2024-03-23T10:51:55;3.15;;;1.33;;
63201;SDS011;49296;48.188;11.566;2024-03-23T10:54:24;3.88;;;1.83;;
63201;SDS011;49296;48.188;11.566;2024-03-23T10:56:50;3.05;;;1.17;;
63201;SDS011;49296;48.188;11.566;2024-03-23T10:59:24;3.30;;;1.33;;
63201;SDS011;49296;48.188;11.566;2024-03-23T11:01:54;2.30;;;1.40;;
63201;SDS011;49296;48.188;11.566;2024-03-23T11:04:31;1.63;;;0.52;;
63201;SDS011;49296;48.188;11.566;2024-03-23T11:06:58;2.22;;;0.95;;
63201;SDS011;49296;48.188;11.566;2024-03-23T11:12:26;1.77;;;0.70;;
63201;SDS011;49296;48.188;11.566;2024-03-23T11:14:57;1.73;;;0.70;;
63201;SDS011;49296;48.188;11.566;2024-03-23T11:17:25;1.75;;;0.85;;
63201;SDS011;49296;48.188;11.566;2024-03-23T11:19:53;1.92;;;0.88;;
63201;SDS011;49296;48.188;11.566;2024-03-23T11:22:40;1.40;;;0.80;;
63201;SDS011;49296;48.188;11.566;2024-03-23T11:25:14;2.92;;;1.05;;
63201;SDS011;49296;48.188;11.566;2024-03-23T11:27:41;2.00;;;0.90;;
63201;SDS011;49296;48.188;11.566;2024-03-23T11:30:12;4.25;;;1.30;;
63201;SDS011;49296;48.188;11.566;2024-03-23T11:32:47;2.80;;;1.27;;
63201;SDS011;49296;48.188;11.566;2024-03-23T11:35:27;2.30;;;1.20;;
63201;SDS011;49296;48.188;11.566;2024-03-23T11:38:03;3.05;;;1.20;;
63201;SDS011;49296;48.188;11.566;2024-03-23T11:40:31;3.10;;;1.38;;
63201;SDS011;49296;48.188;11.566;2024-03-23T11:42:59;3.83;;;1.15;;
63201;SDS011;49296;48.188;11.566;2024-03-23T11:45:31;4.03;;;1.17;;
63201;SDS011;49296;48.188;11.566;2024-03-23T11:48:06;3.55;;;1.38;;
63201;SDS011;49296;48.188;11.566;2024-03-23T11:50:36;2.83;;;1.33;;
63201;SDS011;49296;48.188;11.566;2024-03-23T11:53:06;2.72;;;1.10;;
63201;SDS011;49296;48.188;11.566;2024-03-23T11:55:44;2.42;;;1.20;;
63201;SDS011;49296;48.188;11.566;2024-03-23T11:58:13;2.80;;;1.55;;
63201;SDS011;49296;48.188;11.566;2024-03-23T12:00:42;3.55;;;1.77;;
63201;SDS011;49296;48.188;11.566;2024-03-23T12:03:14;3.60;;;1.70;;
63201;SDS011;49296;48.188;11.566;2024-03-23T12:05:46;4.38;;;1.60;;
63201;SDS011;49296;48.188;11.566;2024-03-23T12:08:20;2.88;;;1.33;;
63201;SDS011;49296;48.188;11.566;2024-03-23T12:10:49;4.28;;;2.05;;
63201;SDS011;49296;48.188;11.566;2024-03-23T12:13:17;3.53;;;1.80;;
63201;SDS011;49296;48.188;11.566;2024-03-23T12:15:46;4.82;;;1.55;;
63201;SDS011;49296;48.188;11.566;2024-03-23T12:18:14;3.15;;;1.48;;
63201;SDS011;49296;48.188;11.566;2024-03-23T12:20:41;4.68;;;1.70;;
63201;SDS011;49296;48.188;11.566;2024-03-23T12:23:08;3.25;;;1.35;;
63201;SDS011;49296;48.188;11.566;2024-03-23T12:25:36;4.28;;;1.70;;
63201;SDS011;49296;48.188;11.566;2024-03-23T12:28:03;3.08;;;1.50;;
63201;SDS011;49296;48.188;11.566;2024-03-23T12:30:31;4.80;;;1.85;;
63201;SDS011;49296;48.188;11.566;2024-03-23T12:32:59;3.90;;;1.83;;
63201;SDS011;49296;48.188;11.566;2024-03-23T12:35:26;4.05;;;1.95;;
63201;SDS011;49296;48.188;11.566;2024-03-23T12:37:52;5.25;;;2.53;;
63201;SDS011;49296;48.188;11.566;2024-03-23T12:40:19;3.92;;;1.75;;
63201;SDS011;49296;48.188;11.566;2024-03-23T12:42:45;4.53;;;2.47;;
63201;SDS011;49296;48.188;11.566;2024-03-23T12:45:12;6.82;;;2.30;;
63201;SDS011;49296;48.188;11.566;2024-03-23T12:47:38;5.60;;;2.08;;
63201;SDS011;49296;48.188;11.566;2024-03-23T12:50:06;4.05;;;1.95;;
63201;SDS011;49296;48.188;11.566;2024-03-23T12:52:33;4.45;;;1.98;;
63201;SDS011;49296;48.188;11.566;2024-03-23T12:55:00;4.30;;;1.90;;
63201;SDS011;49296;48.188;11.566;2024-03-23T12:57:26;4.22;;;2.03;;
63201;SDS011;49296;48.188;11.566;2024-03-23T12:59:53;5.55;;;1.95;;
63201;SDS011;49296;48.188;11.566;2024-03-23T13:02:19;6.07;;;2.00;;
63201;SDS011;49296;48.188;11.566;2024-03-23T13:04:46;5.32;;;1.80;;
63201;SDS011;49296;48.188;11.566;2024-03-23T13:07:16;5.30;;;2.08;;
63201;SDS011;49296;48.188;11.566;2024-03-23T13:09:44;3.00;;;1.80;;
63201;SDS011;49296;48.188;11.566;2024-03-23T13:12:10;5.78;;;2.20;;
63201;SDS011;49296;48.188;11.566;2024-03-23T13:14:38;5.20;;;2.30;;
63201;SDS011;49296;48.188;11.566;2024-03-23T13:17:06;4.53;;;2.28;;
63201;SDS011;49296;48.188;11.566;2024-03-23T13:19:33;5.53;;;2.25;;
63201;SDS011;49296;48.188;11.566;2024-03-23T13:22:00;5.50;;;2.50;;
63201;SDS011;49296;48.188;11.566;2024-03-23T13:24:28;5.53;;;2.83;;
63201;SDS011;49296;48.188;11.566;2024-03-23T13:26:55;6.18;;;2.92;;
63201;SDS011;49296;48.188;11.566;2024-03-23T13:29:22;6.18;;;2.30;;
63201;SDS011;49296;48.188;11.566;2024-03-23T13:31:50;7.57;;;2.65;;
63201;SDS011;49296;48.188;11.566;2024-03-23T13:34:17;3.40;;;2.08;;
63201;SDS011;49296;48.188;11.566;2024-03-23T13:36:45;5.85;;;2.47;;
63201;SDS011;49296;48.188;11.566;2024-03-23T13:39:12;4.35;;;2.17;;
63201;SDS011;49296;48.188;11.566;2024-03-23T13:41:42;4.90;;;2.38;;
63201;SDS011;49296;48.188;11.566;2024-03-23T13:44:09;4.75;;;2.08;;
63201;SDS011;49296;48.188;11.566;2024-03-23T13:46:37;6.50;;;2.38;;
63201;SDS011;49296;48.188;11.566;2024-03-23T13:49:03;6.85;;;2.60;;
63201;SDS011;49296;48.188;11.566;2024-03-23T13:51:30;9.00;;;4.88;;
63201;SDS011;49296;48.188;11.566;2024-03-23T13:53:56;6.75;;;2.70;;
63201;SDS011;49296;48.188;11.566;2024-03-23T13:56:26;6.15;;;2.97;;
63201;SDS011;49296;48.188;11.566;2024-03-23T13:58:54;5.05;;;2.92;;
63201;SDS011;49296;48.188;11.566;2024-03-23T14:01:21;7.53;;;3.40;;
63201;SDS011;49296;48.188;11.566;2024-03-23T14:03:48;9.55;;;3.42;;
63201;SDS011;49296;48.188;11.566;2024-03-23T14:06:15;6.40;;;3.20;;
63201;SDS011;49296;48.188;11.566;2024-03-23T14:08:40;5.82;;;3.50;;
63201;SDS011;49296;48.188;11.566;2024-03-23T14:11:08;6.80;;;3.65;;
63201;SDS011;49296;48.188;11.566;2024-03-23T14:13:34;7.65;;;3.55;;
63201;SDS011;49296;48.188;11.566;2024-03-23T14:16:03;7.43;;;4.20;;
63201;SDS011;49296;48.188;11.566;2024-03-23T14:18:29;6.82;;;3.08;;
63201;SDS011;49296;48.188;11.566;2024-03-23T14:20:57;7.90;;;3.83;;
63201;SDS011;49296;48.188;11.566;2024-03-23T14:23:23;6.35;;;2.95;;
63201;SDS011;49296;48.188;11.566;2024-03-23T14:25:54;6.95;;;2.90;;
63201;SDS011;49296;48.188;11.566;2024-03-23T14:28:20;6.40;;;3.13;;
63201;SDS011;49296;48.188;11.566;2024-03-23T14:30:47;7.30;;;3.38;;
63201;SDS011;49296;48.188;11.566;2024-03-23T14:33:15;5.22;;;3.17;;
63201;SDS011;49296;48.188;11.566;2024-03-23T14:35:43;7.28;;;3.33;;
63201;SDS011;49296;48.188;11.566;2024-03-23T14:38:09;5.88;;;2.55;;
63201;SDS011;49296;48.188;11.566;2024-03-23T14:40:36;7.38;;;2.63;;
63201;SDS011;49296;48.188;11.566;2024-03-23T14:43:02;16.27;;;6.72;;
63201;SDS011;49296;48.188;11.566;2024-03-23T14:45:29;7.78;;;2.58;;
63201;SDS011;49296;48.188;11.566;2024-03-23T14:47:54;6.97;;;2.30;;
63201;SDS011;49296;48.188;11.566;2024-03-23T14:50:24;4.18;;;1.80;;
63201;SDS011;49296;48.188;11.566;2024-03-23T14:52:50;4.68;;;1.98;;
63201;SDS011;49296;48.188;11.566;2024-03-23T14:55:17;5.35;;;1.75;;
63201;SDS011;49296;48.188;11.566;2024-03-23T14:57:43;4.00;;;1.73;;
63201;SDS011;49296;48.188;11.566;2024-03-23T15:00:10;4.28;;;1.77;;
63201;SDS011;49296;48.188;11.566;2024-03-23T15:02:37;3.45;;;1.65;;
63201;SDS011;49296;48.188;11.566;2024-03-23T15:05:04;2.97;;;1.38;;
63201;SDS011;49296;48.188;11.566;2024-03-23T15:07:36;4.90;;;1.83;;
63201;SDS011;49296;48.188;11.566;2024-03-23T15:10:04;5.55;;;2.17;;
63201;SDS011;49296;48.188;11.566;2024-03-23T15:12:30;5.82;;;2.08;;
63201;SDS011;49296;48.188;11.566;2024-03-23T15:14:58;6.13;;;2.13;;
63201;SDS011;49296;48.188;11.566;2024-03-23T15:17:25;10.85;;;5.55;;
63201;SDS011;49296;48.188;11.566;2024-03-23T15:19:51;5.57;;;2.88;;
63201;SDS011;49296;48.188;11.566;2024-03-23T15:22:18;6.53;;;2.60;;
63201;SDS011;49296;48.188;11.566;2024-03-23T15:24:47;7.32;;;2.67;;
63201;SDS011;49296;48.188;11.566;2024-03-23T15:27:13;9.52;;;4.57;;
63201;SDS011;49296;48.188;11.566;2024-03-23T15:29:40;14.43;;;7.20;;